createdAt,value
2018-05-26T00:00:34.318Z,20.88
2018-05-26T00:01:34.262Z,20.88
2018-05-26T00:02:34.233Z,20.88
2018-05-26T00:03:34.224Z,20.88
2018-05-26T00:04:34.256Z,20.88
2018-05-26T00:05:34.293Z,20.88
2018-05-26T00:06:34.263Z,20.81
2018-05-26T00:07:34.268Z,20.81
2018-05-26T00:08:34.258Z,20.81
2018-05-26T00:09:34.251Z,20.81
2018-05-26T00:10:34.278Z,20.81
2018-05-26T00:11:34.288Z,20.81
2018-05-26T00:12:34.275Z,20.81
2018-05-26T00:13:34.248Z,20.81
2018-05-26T00:14:34.253Z,20.81
2018-05-26T00:15:34.244Z,20.81
2018-05-26T00:16:34.272Z,20.75
2018-05-26T00:17:34.319Z,20.81
2018-05-26T00:18:34.278Z,20.75
2018-05-26T00:19:34.260Z,20.75
2018-05-26T00:20:34.246Z,20.81
2018-05-26T00:21:34.265Z,20.75
2018-05-26T00:22:34.250Z,20.81
2018-05-26T00:23:34.268Z,20.81
2018-05-26T00:24:34.282Z,20.75
2018-05-26T00:25:34.789Z,20.75
2018-05-26T00:26:34.304Z,20.75
2018-05-26T00:27:34.253Z,20.69
2018-05-26T00:28:34.269Z,20.75
2018-05-26T00:29:34.285Z,20.62
2018-05-26T00:30:34.276Z,20.62
2018-05-26T00:31:34.331Z,20.62
2018-05-26T00:32:34.270Z,20.56
2018-05-26T00:33:34.273Z,20.62
2018-05-26T00:34:34.275Z,20.56
2018-05-26T00:35:34.256Z,20.56
2018-05-26T00:36:34.273Z,20.56
2018-05-26T00:37:34.240Z,20.56
2018-05-26T00:38:34.246Z,20.56
2018-05-26T00:39:34.275Z,20.56
2018-05-26T00:40:34.269Z,20.5
2018-05-26T00:41:34.301Z,20.5
2018-05-26T00:42:34.357Z,20.5
2018-05-26T00:43:34.315Z,20.5
2018-05-26T00:44:34.438Z,20.5
2018-05-26T00:45:34.304Z,20.5
2018-05-26T00:46:34.346Z,20.5
2018-05-26T00:47:34.252Z,20.5
2018-05-26T00:48:34.274Z,20.5
2018-05-26T00:49:34.257Z,20.5
2018-05-26T00:50:34.274Z,20.5
2018-05-26T00:51:34.323Z,20.5
2018-05-26T00:52:34.272Z,20.5
2018-05-26T00:53:34.280Z,20.44
2018-05-26T00:54:34.285Z,20.44
2018-05-26T00:55:34.259Z,20.44
2018-05-26T00:56:34.269Z,20.44
2018-05-26T00:57:34.289Z,20.5
2018-05-26T00:58:34.293Z,20.5
2018-05-26T00:59:34.344Z,20.44
2018-05-26T01:00:34.270Z,20.44
2018-05-26T01:01:34.300Z,20.5
2018-05-26T01:02:34.338Z,20.44
2018-05-26T01:03:34.300Z,20.44
2018-05-26T01:04:34.434Z,20.37
2018-05-26T01:05:34.317Z,20.37
2018-05-26T01:06:34.288Z,20.37
2018-05-26T01:07:34.287Z,20.37
2018-05-26T01:08:34.338Z,20.37
2018-05-26T01:09:34.403Z,20.37
2018-05-26T01:10:34.296Z,20.31
2018-05-26T01:11:34.296Z,20.31
2018-05-26T01:12:34.282Z,20.31
2018-05-26T01:13:34.270Z,20.31
2018-05-26T01:14:34.290Z,20.31
2018-05-26T01:15:34.352Z,20.31
2018-05-26T01:16:34.310Z,20.31
2018-05-26T01:17:34.716Z,20.31
2018-05-26T01:18:34.454Z,20.25
2018-05-26T01:19:34.289Z,20.25
2018-05-26T01:20:34.283Z,20.25
2018-05-26T01:21:34.265Z,20.25
2018-05-26T01:22:34.290Z,20.25
2018-05-26T01:23:34.278Z,20.19
2018-05-26T01:24:34.313Z,20.19
2018-05-26T01:25:34.284Z,20.19
2018-05-26T01:26:34.306Z,20.19
2018-05-26T01:27:34.339Z,20.19
2018-05-26T01:28:34.305Z,20.19
2018-05-26T01:29:34.301Z,20.12
2018-05-26T01:30:34.386Z,20.12
2018-05-26T01:31:34.300Z,20.19
2018-05-26T01:32:34.308Z,20.12
2018-05-26T01:33:34.597Z,20.19
2018-05-26T01:34:34.300Z,20.12
2018-05-26T01:35:34.283Z,20.12
2018-05-26T01:36:34.310Z,20.12
2018-05-26T01:37:34.297Z,20.12
2018-05-26T01:38:34.305Z,20.12
2018-05-26T01:39:34.300Z,20.12
2018-05-26T01:40:34.315Z,20.12
2018-05-26T01:41:34.328Z,20.12
2018-05-26T01:42:34.326Z,20.06
2018-05-26T01:43:34.299Z,20.06
2018-05-26T01:44:34.371Z,20.06
2018-05-26T01:45:34.306Z,20.06
2018-05-26T01:46:34.308Z,20.06
2018-05-26T01:47:34.330Z,20.06
2018-05-26T01:48:34.316Z,20.06
2018-05-26T01:49:34.334Z,20.06
2018-05-26T01:50:34.330Z,20.06
2018-05-26T01:51:34.301Z,20.06
2018-05-26T01:52:34.362Z,20
2018-05-26T01:53:34.288Z,20
2018-05-26T01:54:34.359Z,20
2018-05-26T01:55:34.310Z,19.94
2018-05-26T01:56:34.296Z,19.94
2018-05-26T01:57:34.365Z,20
2018-05-26T01:58:34.345Z,20
2018-05-26T01:59:34.324Z,20
2018-05-26T02:00:34.335Z,19.94
2018-05-26T02:01:34.302Z,19.94
2018-05-26T02:02:34.317Z,19.94
2018-05-26T02:03:34.337Z,19.87
2018-05-26T02:04:34.356Z,19.87
2018-05-26T02:05:34.366Z,19.87
2018-05-26T02:06:34.307Z,19.87
2018-05-26T02:07:34.316Z,19.87
2018-05-26T02:08:34.332Z,19.87
2018-05-26T02:09:34.462Z,19.87
2018-05-26T02:10:34.495Z,19.87
2018-05-26T02:11:34.327Z,19.87
2018-05-26T02:12:34.380Z,19.87
2018-05-26T02:13:34.301Z,19.87
2018-05-26T02:14:34.388Z,19.87
2018-05-26T02:15:34.338Z,19.87
2018-05-26T02:16:34.367Z,19.87
2018-05-26T02:17:34.376Z,19.81
2018-05-26T02:18:34.321Z,19.87
2018-05-26T02:19:34.492Z,19.81
2018-05-26T02:20:34.395Z,19.81
2018-05-26T02:21:34.330Z,19.81
2018-05-26T02:22:34.381Z,19.75
2018-05-26T02:23:34.315Z,19.75
2018-05-26T02:24:34.687Z,19.75
2018-05-26T02:25:34.330Z,19.69
2018-05-26T02:26:34.590Z,19.75
2018-05-26T02:27:34.324Z,19.69
2018-05-26T02:28:34.338Z,19.75
2018-05-26T02:29:34.345Z,19.75
2018-05-26T02:30:34.375Z,19.75
2018-05-26T02:31:34.390Z,19.69
2018-05-26T02:32:34.361Z,19.69
2018-05-26T02:33:34.389Z,19.62
2018-05-26T02:34:34.508Z,19.69
2018-05-26T02:35:34.364Z,19.69
2018-05-26T02:36:34.370Z,19.62
2018-05-26T02:37:34.389Z,19.62
2018-05-26T02:38:34.315Z,19.62
2018-05-26T02:39:34.332Z,19.56
2018-05-26T02:40:34.326Z,19.62
2018-05-26T02:41:34.318Z,19.56
2018-05-26T02:42:54.619Z,19.62
2018-05-26T02:43:54.645Z,19.56
2018-05-26T02:44:54.619Z,19.62
2018-05-26T02:45:54.655Z,19.56
2018-05-26T02:46:54.627Z,19.56
2018-05-26T02:47:54.635Z,19.56
2018-05-26T02:48:54.611Z,19.5
2018-05-26T02:49:54.633Z,19.56
2018-05-26T02:50:54.581Z,19.5
2018-05-26T02:51:54.627Z,19.56
2018-05-26T02:52:54.649Z,19.5
2018-05-26T02:53:54.589Z,19.5
2018-05-26T02:54:54.640Z,19.44
2018-05-26T02:55:54.594Z,19.44
2018-05-26T02:56:54.631Z,19.44
2018-05-26T02:57:54.620Z,19.44
2018-05-26T02:58:54.652Z,19.37
2018-05-26T02:59:54.590Z,19.37
2018-05-26T03:00:54.660Z,19.44
2018-05-26T03:01:54.626Z,19.37
2018-05-26T03:02:54.603Z,19.37
2018-05-26T03:03:54.602Z,19.37
2018-05-26T03:04:54.607Z,19.31
2018-05-26T03:05:54.625Z,19.37
2018-05-26T03:06:54.623Z,19.37
2018-05-26T03:07:54.587Z,19.37
2018-05-26T03:08:54.634Z,19.31
2018-05-26T03:09:54.662Z,19.31
2018-05-26T03:10:54.633Z,19.31
2018-05-26T03:11:54.611Z,19.25
2018-05-26T03:12:54.957Z,19.25
2018-05-26T03:13:54.620Z,19.25
2018-05-26T03:14:54.621Z,19.25
2018-05-26T03:15:54.594Z,19.25
2018-05-26T03:16:54.619Z,19.25
2018-05-26T03:17:54.662Z,19.19
2018-05-26T03:18:54.621Z,19.19
2018-05-26T03:19:54.594Z,19.12
2018-05-26T03:20:54.580Z,19.12
2018-05-26T03:21:54.573Z,19.12
2018-05-26T03:22:54.580Z,19.12
2018-05-26T03:23:54.613Z,19.12
2018-05-26T03:24:54.803Z,19.12
2018-05-26T03:25:54.588Z,19.06
2018-05-26T03:26:54.584Z,19.12
2018-05-26T03:27:54.581Z,19.06
2018-05-26T03:28:54.580Z,19.06
2018-05-26T03:29:54.578Z,19.06
2018-05-26T03:30:54.594Z,19.12
2018-05-26T03:31:54.571Z,19.06
2018-05-26T03:32:54.669Z,19.06
2018-05-26T03:33:54.586Z,19.12
2018-05-26T03:34:54.562Z,19.12
2018-05-26T03:35:54.601Z,19.12
2018-05-26T03:36:54.570Z,19.12
2018-05-26T03:37:54.678Z,19.12
2018-05-26T03:38:54.661Z,19.12
2018-05-26T03:39:54.565Z,19.19
2018-05-26T03:40:54.593Z,19.19
2018-05-26T03:41:54.576Z,19.19
2018-05-26T03:42:54.644Z,19.19
2018-05-26T03:43:54.573Z,19.19
2018-05-26T03:44:54.576Z,19.19
2018-05-26T03:45:54.634Z,19.19
2018-05-26T03:46:54.614Z,19.19
2018-05-26T03:47:54.559Z,19.19
2018-05-26T03:48:54.617Z,19.19
2018-05-26T03:49:54.685Z,19.25
2018-05-26T03:50:54.741Z,19.19
2018-05-26T03:51:54.616Z,19.25
2018-05-26T03:52:54.542Z,19.25
2018-05-26T03:53:54.559Z,19.25
2018-05-26T03:54:54.933Z,19.25
2018-05-26T03:55:54.556Z,19.25
2018-05-26T03:56:54.573Z,19.25
2018-05-26T03:57:54.598Z,19.19
2018-05-26T03:58:54.564Z,19.25
2018-05-26T03:59:54.570Z,19.25
2018-05-26T04:00:54.567Z,19.25
2018-05-26T04:01:54.570Z,19.31
2018-05-26T04:02:54.621Z,19.25
2018-05-26T04:03:54.543Z,19.31
2018-05-26T04:04:54.723Z,19.25
2018-05-26T04:05:55.624Z,19.25
2018-05-26T04:06:54.556Z,19.31
2018-05-26T04:07:54.757Z,19.25
2018-05-26T04:08:54.557Z,19.31
2018-05-26T04:09:54.585Z,19.31
2018-05-26T04:10:54.558Z,19.25
2018-05-26T04:11:54.574Z,19.31
2018-05-26T04:12:54.590Z,19.31
2018-05-26T04:13:54.572Z,19.25
2018-05-26T04:14:54.571Z,19.31
2018-05-26T04:15:54.581Z,19.31
2018-05-26T04:16:54.668Z,19.31
2018-05-26T04:17:54.549Z,19.31
2018-05-26T04:18:54.528Z,19.31
2018-05-26T04:19:54.654Z,19.31
2018-05-26T04:20:54.549Z,19.31
2018-05-26T04:21:54.940Z,19.31
2018-05-26T04:22:54.554Z,19.31
2018-05-26T04:23:54.999Z,19.25
2018-05-26T04:24:56.537Z,19.25
2018-05-26T04:25:54.582Z,19.31
2018-05-26T04:26:54.610Z,19.25
2018-05-26T04:27:54.590Z,19.25
2018-05-26T04:28:54.535Z,19.25
2018-05-26T04:29:55.318Z,19.25
2018-05-26T04:30:54.701Z,19.31
2018-05-26T04:31:54.838Z,19.31
2018-05-26T04:32:54.629Z,19.25
2018-05-26T04:33:54.624Z,19.31
2018-05-26T04:34:54.707Z,19.25
2018-05-26T04:35:54.600Z,19.31
2018-05-26T04:36:54.636Z,19.31
2018-05-26T04:37:54.643Z,19.31
2018-05-26T04:38:54.617Z,19.31
2018-05-26T04:39:54.594Z,19.31
2018-05-26T04:40:54.577Z,19.31
2018-05-26T04:41:54.579Z,19.31
2018-05-26T04:42:54.584Z,19.31
2018-05-26T04:43:54.583Z,19.31
2018-05-26T04:44:55.810Z,19.31
2018-05-26T04:45:54.656Z,19.31
2018-05-26T04:46:54.586Z,19.31
2018-05-26T04:47:54.577Z,19.25
2018-05-26T04:48:54.589Z,19.31
2018-05-26T04:49:54.559Z,19.25
2018-05-26T04:50:54.647Z,19.25
2018-05-26T04:51:54.621Z,19.31
2018-05-26T04:52:54.577Z,19.31
2018-05-26T04:53:54.636Z,19.31
2018-05-26T04:54:54.613Z,19.31
2018-05-26T04:55:54.571Z,19.31
2018-05-26T04:56:54.604Z,19.31
2018-05-26T04:57:54.589Z,19.31
2018-05-26T04:58:54.586Z,19.31
2018-05-26T04:59:54.575Z,19.37
2018-05-26T05:00:54.593Z,19.37
2018-05-26T05:01:54.566Z,19.37
2018-05-26T05:02:54.698Z,19.44
2018-05-26T05:03:54.575Z,19.37
2018-05-26T05:04:54.556Z,19.37
2018-05-26T05:05:54.543Z,19.37
2018-05-26T05:06:54.572Z,19.37
2018-05-26T05:07:54.706Z,19.44
2018-05-26T05:08:54.612Z,19.44
2018-05-26T05:09:54.580Z,19.44
2018-05-26T05:10:54.591Z,19.5
2018-05-26T05:11:54.520Z,19.5
2018-05-26T05:12:54.561Z,19.5
2018-05-26T05:13:54.519Z,19.5
2018-05-26T05:14:54.553Z,19.5
2018-05-26T05:15:54.518Z,19.5
2018-05-26T05:16:54.546Z,19.44
2018-05-26T05:17:54.534Z,19.5
2018-05-26T05:18:54.535Z,19.5
2018-05-26T05:19:54.545Z,19.5
2018-05-26T05:20:54.662Z,19.5
2018-05-26T05:21:54.558Z,19.5
2018-05-26T05:22:54.856Z,19.56
2018-05-26T05:23:54.535Z,19.56
2018-05-26T05:24:54.558Z,19.56
2018-05-26T05:25:54.530Z,19.56
2018-05-26T05:26:54.518Z,19.56
2018-05-26T05:27:54.870Z,19.62
2018-05-26T05:28:54.534Z,19.62
2018-05-26T05:29:54.579Z,19.62
2018-05-26T05:30:54.612Z,19.62
2018-05-26T05:31:55.358Z,19.69
2018-05-26T05:32:54.605Z,19.69
2018-05-26T05:33:54.767Z,19.69
2018-05-26T05:34:54.550Z,19.69
2018-05-26T05:35:54.623Z,19.69
2018-05-26T05:36:54.567Z,19.75
2018-05-26T05:37:54.576Z,19.69
2018-05-26T05:38:54.503Z,19.69
2018-05-26T05:39:54.578Z,19.75
2018-05-26T05:40:54.592Z,19.75
2018-05-26T05:41:54.657Z,19.75
2018-05-26T05:42:54.564Z,19.75
2018-05-26T05:43:54.592Z,19.75
2018-05-26T05:44:54.610Z,19.81
2018-05-26T05:45:54.559Z,19.81
2018-05-26T05:46:54.531Z,19.81
2018-05-26T05:47:54.524Z,19.81
2018-05-26T05:48:54.528Z,19.81
2018-05-26T05:49:54.535Z,19.81
2018-05-26T05:50:54.553Z,19.81
2018-05-26T05:51:54.521Z,19.81
2018-05-26T05:52:54.608Z,19.87
2018-05-26T05:53:54.730Z,19.81
2018-05-26T05:54:54.683Z,19.87
2018-05-26T05:55:54.563Z,19.87
2018-05-26T05:56:54.569Z,19.87
2018-05-26T05:57:54.641Z,19.87
2018-05-26T05:58:54.808Z,19.94
2018-05-26T05:59:54.552Z,19.94
2018-05-26T06:00:54.542Z,19.94
2018-05-26T06:01:54.557Z,20
2018-05-26T06:02:54.547Z,19.94
2018-05-26T06:03:54.540Z,20
2018-05-26T06:04:54.581Z,20
2018-05-26T06:05:54.770Z,20
2018-05-26T06:06:54.775Z,20
2018-05-26T06:07:54.563Z,20
2018-05-26T06:08:54.539Z,20.06
2018-05-26T06:09:54.732Z,20.06
2018-05-26T06:10:54.634Z,20.06
2018-05-26T06:11:54.522Z,20.06
2018-05-26T06:12:54.548Z,20.06
2018-05-26T06:13:54.676Z,20.06
2018-05-26T06:14:54.943Z,20.12
2018-05-26T06:15:54.550Z,20.06
2018-05-26T06:16:54.556Z,20.12
2018-05-26T06:17:54.952Z,20.12
2018-05-26T06:18:54.570Z,20.06
2018-05-26T06:19:54.528Z,20.06
2018-05-26T06:20:54.529Z,20.06
2018-05-26T06:21:54.573Z,20.12
2018-05-26T06:22:54.507Z,20.12
2018-05-26T06:23:54.516Z,20.06
2018-05-26T06:24:54.524Z,20.12
2018-05-26T06:25:54.556Z,20.12
2018-05-26T06:26:54.499Z,20.06
2018-05-26T06:27:54.512Z,20.12
2018-05-26T06:28:54.528Z,20.06
2018-05-26T06:29:54.521Z,20.06
2018-05-26T06:30:54.503Z,20.12
2018-05-26T06:31:54.528Z,20.06
2018-05-26T06:32:54.498Z,20.12
2018-05-26T06:33:54.557Z,20.06
2018-05-26T06:34:54.599Z,20.06
2018-05-26T06:35:54.800Z,20.12
2018-05-26T06:36:54.507Z,20.12
2018-05-26T06:37:54.623Z,20.12
2018-05-26T06:38:54.588Z,20.12
2018-05-26T06:39:54.584Z,20.12
2018-05-26T06:40:54.568Z,20.19
2018-05-26T06:41:54.603Z,20.19
2018-05-26T06:42:54.517Z,20.19
2018-05-26T06:43:54.481Z,20.25
2018-05-26T06:44:54.486Z,20.25
2018-05-26T06:45:54.563Z,20.31
2018-05-26T06:46:54.737Z,20.31
2018-05-26T06:47:54.513Z,20.31
2018-05-26T06:48:54.846Z,20.37
2018-05-26T06:49:54.519Z,20.44
2018-05-26T06:50:54.642Z,20.37
2018-05-26T06:51:54.529Z,20.5
2018-05-26T06:52:54.536Z,20.5
2018-05-26T06:53:54.616Z,20.5
2018-05-26T06:54:54.517Z,20.5
2018-05-26T06:55:54.843Z,20.5
2018-05-26T06:56:54.499Z,20.56
2018-05-26T06:57:54.504Z,20.56
2018-05-26T06:58:54.534Z,20.62
2018-05-26T06:59:54.471Z,20.62
2018-05-26T07:00:54.764Z,20.69
2018-05-26T07:01:54.478Z,20.62
2018-05-26T07:02:54.506Z,20.69
2018-05-26T07:03:54.476Z,20.69
2018-05-26T07:04:54.663Z,20.75
2018-05-26T07:05:54.769Z,20.75
2018-05-26T07:06:54.539Z,20.81
2018-05-26T07:07:54.497Z,20.81
2018-05-26T07:08:55.340Z,20.88
2018-05-26T07:09:54.481Z,20.88
2018-05-26T07:10:54.457Z,20.88
2018-05-26T07:11:54.484Z,20.94
2018-05-26T07:12:54.536Z,20.94
2018-05-26T07:13:54.545Z,21
2018-05-26T07:14:54.475Z,20.94
2018-05-26T07:15:54.549Z,21
2018-05-26T07:16:54.506Z,21
2018-05-26T07:17:54.490Z,21.06
2018-05-26T07:18:54.477Z,21.06
2018-05-26T07:19:54.473Z,21.12
2018-05-26T07:20:54.488Z,21.12
2018-05-26T07:21:54.503Z,21.12
2018-05-26T07:22:54.760Z,21.12
2018-05-26T07:23:54.524Z,21.19
2018-05-26T07:24:54.599Z,21.25
2018-05-26T07:25:54.497Z,21.25
2018-05-26T07:26:54.501Z,21.25
2018-05-26T07:27:54.843Z,21.31
2018-05-26T07:28:54.472Z,21.31
2018-05-26T07:29:54.519Z,21.44
2018-05-26T07:30:54.531Z,21.44
2018-05-26T07:31:54.458Z,21.44
2018-05-26T07:32:54.465Z,21.5
2018-05-26T07:33:54.474Z,21.5
2018-05-26T07:34:54.558Z,21.56
2018-05-26T07:35:55.159Z,21.62
2018-05-26T07:36:54.463Z,21.69
2018-05-26T07:37:54.484Z,21.69
2018-05-26T07:38:54.528Z,21.75
2018-05-26T07:39:54.507Z,21.75
2018-05-26T07:40:54.571Z,21.81
2018-05-26T07:41:54.532Z,21.81
2018-05-26T07:42:54.609Z,21.75
2018-05-26T07:43:54.492Z,21.81
2018-05-26T07:44:54.489Z,21.81
2018-05-26T07:45:55.467Z,21.81
2018-05-26T07:46:54.519Z,21.81
2018-05-26T07:47:54.506Z,21.81
2018-05-26T07:48:54.475Z,21.87
2018-05-26T07:49:54.478Z,21.94
2018-05-26T07:50:54.832Z,21.94
2018-05-26T07:51:54.508Z,21.94
2018-05-26T07:52:54.469Z,21.94
2018-05-26T07:53:55.029Z,21.94
2018-05-26T07:54:54.509Z,21.94
2018-05-26T07:55:54.464Z,21.94
2018-05-26T07:56:54.477Z,22
2018-05-26T07:57:55.571Z,22
2018-05-26T07:58:54.544Z,22
2018-05-26T07:59:54.561Z,22.06
2018-05-26T08:00:54.703Z,22.06
2018-05-26T08:01:55.557Z,22.13
2018-05-26T08:02:54.499Z,22.13
2018-05-26T08:03:54.477Z,22.19
2018-05-26T08:04:54.465Z,22.25
2018-05-26T08:05:54.493Z,22.31
2018-05-26T08:06:54.467Z,22.31
2018-05-26T08:07:54.476Z,22.25
2018-05-26T08:08:54.506Z,22.31
2018-05-26T08:09:54.445Z,22.25
2018-05-26T08:10:54.874Z,22.31
2018-05-26T08:11:54.486Z,22.44
2018-05-26T08:12:54.541Z,22.44
2018-05-26T08:13:54.504Z,22.5
2018-05-26T08:14:54.481Z,22.5
2018-05-26T08:15:54.445Z,22.5
2018-05-26T08:16:54.627Z,22.62
2018-05-26T08:17:54.456Z,22.56
2018-05-26T08:18:54.516Z,22.62
2018-05-26T08:19:54.478Z,22.75
2018-05-26T08:20:54.490Z,22.69
2018-05-26T08:21:54.489Z,22.75
2018-05-26T08:22:54.508Z,22.75
2018-05-26T08:23:54.430Z,22.75
2018-05-26T08:24:54.476Z,22.81
2018-05-26T08:25:54.644Z,22.87
2018-05-26T08:26:54.483Z,22.87
2018-05-26T08:27:54.445Z,22.94
2018-05-26T08:28:54.522Z,22.94
2018-05-26T08:29:54.626Z,22.94
2018-05-26T08:30:54.621Z,23
2018-05-26T08:31:54.437Z,23
2018-05-26T08:32:54.453Z,23.06
2018-05-26T08:33:55.090Z,23.06
2018-05-26T08:34:54.491Z,23.06
2018-05-26T08:35:54.488Z,23.12
2018-05-26T08:36:54.476Z,23.19
2018-05-26T08:37:54.481Z,23.19
2018-05-26T08:38:54.960Z,23.25
2018-05-26T08:39:55.007Z,23.31
2018-05-26T08:40:54.468Z,23.31
2018-05-26T08:41:54.463Z,23.31
2018-05-26T08:42:54.480Z,23.31
2018-05-26T08:43:54.977Z,23.31
2018-05-26T08:44:54.490Z,23.31
2018-05-26T08:45:54.486Z,23.38
2018-05-26T08:46:54.447Z,23.38
2018-05-26T08:47:54.470Z,23.38
2018-05-26T08:48:54.473Z,23.38
2018-05-26T08:49:54.456Z,23.44
2018-05-26T08:50:54.506Z,23.56
2018-05-26T08:51:54.448Z,23.5
2018-05-26T08:52:54.463Z,23.56
2018-05-26T08:53:54.492Z,23.62
2018-05-26T08:54:56.671Z,23.62
2018-05-26T08:55:54.445Z,23.69
2018-05-26T08:56:54.473Z,23.62
2018-05-26T08:57:54.434Z,23.69
2018-05-26T08:58:54.535Z,23.75
2018-05-26T08:59:54.616Z,23.81
2018-05-26T09:00:54.497Z,23.81
2018-05-26T09:01:54.465Z,23.81
2018-05-26T09:02:54.425Z,23.87
2018-05-26T09:03:56.760Z,23.87
2018-05-26T09:04:54.479Z,24
2018-05-26T09:05:54.434Z,24
2018-05-26T09:06:54.446Z,24
2018-05-26T09:07:54.477Z,24.06
2018-05-26T09:08:54.432Z,24.06
2018-05-26T09:09:54.467Z,24.12
2018-05-26T09:10:54.559Z,24.12
2018-05-26T09:11:56.603Z,24.06
2018-05-26T09:12:54.556Z,24.12
2018-05-26T09:13:54.454Z,24.06
2018-05-26T09:14:54.840Z,24.06
2018-05-26T09:15:54.842Z,24.12
2018-05-26T09:16:54.506Z,24.06
2018-05-26T09:17:55.976Z,24.06
2018-05-26T09:18:54.475Z,24.12
2018-05-26T09:19:54.468Z,24.12
2018-05-26T09:20:54.478Z,24.06
2018-05-26T09:21:54.898Z,24.12
2018-05-26T09:22:54.451Z,24.12
2018-05-26T09:23:54.472Z,24.12
2018-05-26T09:24:54.438Z,24.12
2018-05-26T09:25:54.426Z,24.19
2018-05-26T09:26:54.444Z,24.19
2018-05-26T09:27:54.448Z,24.25
2018-05-26T09:28:54.489Z,24.19
2018-05-26T09:29:54.442Z,24.25
2018-05-26T09:30:54.446Z,24.25
2018-05-26T09:31:54.461Z,24.25
2018-05-26T09:32:54.436Z,24.31
2018-05-26T09:33:54.466Z,24.31
2018-05-26T09:34:54.485Z,24.37
2018-05-26T09:35:54.444Z,24.44
2018-05-26T09:36:55.373Z,24.5
2018-05-26T09:37:54.499Z,24.56
2018-05-26T09:38:54.606Z,24.56
2018-05-26T09:39:54.422Z,24.63
2018-05-26T09:40:54.646Z,24.63
2018-05-26T09:41:54.634Z,24.69
2018-05-26T09:42:54.474Z,24.69
2018-05-26T09:43:54.476Z,24.69
2018-05-26T09:44:54.456Z,24.75
2018-05-26T09:45:55.079Z,24.75
2018-05-26T09:46:55.192Z,24.81
2018-05-26T09:47:55.189Z,24.81
2018-05-26T09:48:55.194Z,24.94
2018-05-26T09:49:55.082Z,24.94
2018-05-26T09:50:55.218Z,25
2018-05-26T09:51:55.147Z,25.06
2018-05-26T09:52:55.140Z,25.06
2018-05-26T09:53:55.600Z,25.06
2018-05-26T09:54:55.375Z,25.06
2018-05-26T09:55:55.257Z,25.06
2018-05-26T09:56:55.275Z,25.06
2018-05-26T09:57:56.121Z,25.12
2018-05-26T09:58:55.925Z,25.19
2018-05-26T09:59:55.102Z,25.25
2018-05-26T10:00:55.152Z,25.25
2018-05-26T10:01:55.188Z,25.31
2018-05-26T10:02:56.180Z,25.31
2018-05-26T10:03:56.124Z,25.31
2018-05-26T10:04:55.280Z,25.31
2018-05-26T10:05:55.140Z,25.25
2018-05-26T10:06:55.774Z,25.31
2018-05-26T10:07:55.163Z,25.37
2018-05-26T10:08:55.813Z,25.31
2018-05-26T10:09:55.418Z,25.37
2018-05-26T10:10:55.184Z,25.44
2018-05-26T10:11:55.022Z,25.44
2018-05-26T10:12:55.167Z,25.44
2018-05-26T10:13:55.312Z,25.44
2018-05-26T10:14:55.185Z,25.44
2018-05-26T10:15:55.152Z,25.5
2018-05-26T10:16:55.976Z,25.56
2018-05-26T10:17:55.194Z,25.56
2018-05-26T10:18:54.963Z,25.56
2018-05-26T10:19:55.648Z,25.62
2018-05-26T10:20:56.036Z,25.62
2018-05-26T10:21:55.226Z,25.69
2018-05-26T10:22:55.192Z,25.69
2018-05-26T10:23:55.164Z,25.75
2018-05-26T10:24:55.261Z,25.75
2018-05-26T10:25:55.997Z,25.75
2018-05-26T10:26:55.226Z,25.75
2018-05-26T10:27:55.102Z,25.75
2018-05-26T10:28:55.530Z,25.81
2018-05-26T10:29:55.415Z,25.81
2018-05-26T10:30:56.142Z,25.81
2018-05-26T10:31:55.248Z,25.88
2018-05-26T10:32:55.191Z,25.88
2018-05-26T10:33:55.761Z,25.94
2018-05-26T10:34:55.874Z,26
2018-05-26T10:35:55.178Z,26.06
2018-05-26T10:36:55.187Z,26.06
2018-05-26T10:37:55.701Z,26.06
2018-05-26T10:38:54.403Z,26.06
2018-05-26T10:39:55.243Z,26.06
2018-05-26T10:40:55.545Z,26.12
2018-05-26T10:41:55.120Z,26
2018-05-26T10:42:54.402Z,26.06
2018-05-26T10:43:55.421Z,25.94
2018-05-26T10:44:55.312Z,26
2018-05-26T10:45:54.430Z,26
2018-05-26T10:46:54.482Z,26
2018-05-26T10:47:54.462Z,26
2018-05-26T10:48:54.496Z,26
2018-05-26T10:49:54.941Z,26
2018-05-26T10:50:54.595Z,25.94
2018-05-26T10:51:54.399Z,26
2018-05-26T10:52:54.621Z,26
2018-05-26T10:53:54.475Z,26
2018-05-26T10:54:54.545Z,26
2018-05-26T10:55:54.917Z,26
2018-05-26T10:56:54.487Z,26
2018-05-26T10:57:54.471Z,26.06
2018-05-26T10:58:54.429Z,26
2018-05-26T10:59:54.495Z,26.06
2018-05-26T11:00:54.399Z,26.06
2018-05-26T11:01:54.511Z,26
2018-05-26T11:02:54.420Z,26.12
2018-05-26T11:03:54.487Z,26.12
2018-05-26T11:04:54.637Z,26.19
2018-05-26T11:05:54.531Z,26.19
2018-05-26T11:06:54.816Z,26.25
2018-05-26T11:07:54.429Z,26.19
2018-05-26T11:08:54.547Z,26.31
2018-05-26T11:09:54.400Z,26.37
2018-05-26T11:10:54.578Z,26.37
2018-05-26T11:11:54.512Z,26.44
2018-05-26T11:12:54.559Z,26.5
2018-05-26T11:13:54.599Z,26.5
2018-05-26T11:14:55.072Z,26.56
2018-05-26T11:15:54.444Z,26.56
2018-05-26T11:16:55.538Z,26.62
2018-05-26T11:17:56.965Z,26.62
2018-05-26T11:18:55.008Z,26.75
2018-05-26T11:19:54.621Z,26.75
2018-05-26T11:20:54.460Z,26.75
2018-05-26T11:21:54.413Z,26.81
2018-05-26T11:22:54.757Z,26.81
2018-05-26T11:23:55.195Z,26.87
2018-05-26T11:24:54.779Z,26.94
2018-05-26T11:25:54.522Z,26.87
2018-05-26T11:26:54.773Z,26.94
2018-05-26T11:27:54.474Z,27
2018-05-26T11:28:55.056Z,27
2018-05-26T11:29:55.011Z,27
2018-05-26T11:30:54.868Z,27.06
2018-05-26T11:31:54.667Z,27.13
2018-05-26T11:32:54.445Z,27.19
2018-05-26T11:33:54.390Z,27.19
2018-05-26T11:34:54.521Z,27.19
2018-05-26T11:35:54.382Z,27.25
2018-05-26T11:36:54.390Z,27.25
2018-05-26T11:37:54.576Z,27.25
2018-05-26T11:38:54.383Z,27.19
2018-05-26T11:39:54.376Z,27.19
2018-05-26T11:40:54.519Z,27.19
2018-05-26T11:41:54.544Z,27.25
2018-05-26T11:42:54.397Z,27.25
2018-05-26T11:43:54.428Z,27.25
2018-05-26T11:44:54.426Z,27.31
2018-05-26T11:45:54.392Z,27.31
2018-05-26T11:46:54.512Z,27.37
2018-05-26T11:47:54.520Z,27.37
2018-05-26T11:48:54.411Z,27.37
2018-05-26T11:49:54.509Z,27.44
2018-05-26T11:50:54.382Z,27.44
2018-05-26T11:51:54.391Z,27.44
2018-05-26T11:52:54.551Z,27.44
2018-05-26T11:53:54.421Z,27.5
2018-05-26T11:54:54.376Z,27.5
2018-05-26T11:55:54.459Z,27.5
2018-05-26T11:56:54.385Z,27.56
2018-05-26T11:57:54.409Z,27.56
2018-05-26T11:58:54.529Z,27.5
2018-05-26T11:59:54.386Z,27.44
2018-05-26T12:00:54.395Z,27.37
2018-05-26T12:01:55.085Z,27.37
2018-05-26T12:02:54.620Z,27.44
2018-05-26T12:03:54.366Z,27.44
2018-05-26T12:04:54.529Z,27.44
2018-05-26T12:05:54.406Z,27.5
2018-05-26T12:06:54.555Z,27.5
2018-05-26T12:07:54.449Z,27.56
2018-05-26T12:08:54.387Z,27.56
2018-05-26T12:09:54.468Z,27.56
2018-05-26T12:10:55.264Z,27.62
2018-05-26T12:11:54.405Z,27.62
2018-05-26T12:12:54.625Z,27.69
2018-05-26T12:13:54.471Z,27.44
2018-05-26T12:14:54.395Z,27.31
2018-05-26T12:15:54.422Z,27.19
2018-05-26T12:16:54.711Z,27.19
2018-05-26T12:17:54.632Z,27.19
2018-05-26T12:18:54.423Z,27.19
2018-05-26T12:19:54.535Z,27.25
2018-05-26T12:20:54.487Z,27.31
2018-05-26T12:21:54.492Z,27.31
2018-05-26T12:22:54.455Z,27.31
2018-05-26T12:23:54.383Z,27.44
2018-05-26T12:24:54.494Z,27.5
2018-05-26T12:25:54.388Z,27.5
2018-05-26T12:26:54.758Z,27.62
2018-05-26T12:27:54.384Z,27.69
2018-05-26T12:28:54.443Z,27.69
2018-05-26T12:29:54.426Z,27.69
2018-05-26T12:30:54.380Z,27.56
2018-05-26T12:31:54.517Z,27.62
2018-05-26T12:32:54.817Z,27.69
2018-05-26T12:33:54.439Z,27.69
2018-05-26T12:34:55.538Z,27.69
2018-05-26T12:35:54.384Z,27.81
2018-05-26T12:36:54.400Z,27.81
2018-05-26T12:37:56.553Z,27.81
2018-05-26T12:38:54.362Z,27.94
2018-05-26T12:39:54.388Z,27.94
2018-05-26T12:40:54.572Z,27.94
2018-05-26T12:41:54.590Z,28
2018-05-26T12:42:54.450Z,28.06
2018-05-26T12:43:54.501Z,28.12
2018-05-26T12:44:54.937Z,28.19
2018-05-26T12:45:54.393Z,28.25
2018-05-26T12:46:54.504Z,28.25
2018-05-26T12:47:54.410Z,28.31
2018-05-26T12:48:54.420Z,28.12
2018-05-26T12:49:54.519Z,28.06
2018-05-26T12:50:54.400Z,28.06
2018-05-26T12:51:54.541Z,28.06
2018-05-26T12:52:54.393Z,28
2018-05-26T12:53:54.364Z,28.06
2018-05-26T12:54:54.397Z,28.06
2018-05-26T12:55:54.401Z,28
2018-05-26T12:56:54.436Z,28.12
2018-05-26T12:57:54.415Z,28.19
2018-05-26T12:58:54.483Z,28.06